Time;durP1;ratioP1;P1;durP2;ratioP2;P2;SDS_P1;SDS_P2;PMS_P1;PMS_P2;Temp;Humidity;BMP_temperature;BMP_pressure;BME280_temperature;BME280_humidity;BME280_pressure;Samples;Min_cycle;Max_cycle;Signal;HPM_P1;HPM_P2
2023/03/14 00:01:55;;;;;;;2.17;1.17;;;11.60;99.90;;;;;;5041083;28;20465;-71
2023/03/14 00:04:40;;;;;;;1.73;1.00;;;11.60;99.90;;;;;;5030103;28;20422;-71
2023/03/14 00:07:26;;;;;;;2.23;1.27;;;11.60;99.90;;;;;;5037509;28;20533;-70
2023/03/14 00:10:13;;;;;;;3.83;1.47;;;11.50;99.90;;;;;;5041599;28;20473;-71
2023/03/14 00:13:00;;;;;;;2.70;1.30;;;11.60;99.90;;;;;;5043731;28;20451;-71
2023/03/14 00:15:46;;;;;;;1.90;0.87;;;11.60;99.90;;;;;;5032188;28;20455;-71
2023/03/14 00:18:32;;;;;;;2.07;1.07;;;11.60;99.90;;;;;;5040912;28;20446;-71
2023/03/14 00:21:18;;;;;;;1.90;1.10;;;11.70;99.90;;;;;;5045612;28;20398;-71
2023/03/14 00:24:04;;;;;;;2.00;1.13;;;11.80;99.90;;;;;;5034797;28;20790;-71
2023/03/14 00:26:50;;;;;;;3.67;1.07;;;11.70;99.90;;;;;;5030394;28;20429;-72
2023/03/14 00:29:37;;;;;;;3.13;1.17;;;11.70;99.90;;;;;;5029536;28;20444;-71
2023/03/14 00:32:23;;;;;;;1.67;1.00;;;11.70;99.90;;;;;;5035363;28;20967;-71
2023/03/14 00:35:09;;;;;;;1.70;1.03;;;11.70;99.90;;;;;;5027744;28;21012;-71
2023/03/14 00:37:54;;;;;;;2.47;1.30;;;11.70;99.90;;;;;;5033008;28;20426;-71
2023/03/14 00:40:40;;;;;;;1.57;1.00;;;11.70;99.90;;;;;;5028354;28;20444;-71
2023/03/14 00:43:26;;;;;;;3.67;1.10;;;11.70;99.90;;;;;;5034092;28;20450;-71
2023/03/14 00:46:14;;;;;;;3.40;2.03;;;11.70;99.90;;;;;;5034953;28;20783;-71
2023/03/14 00:48:59;;;;;;;2.90;1.13;;;11.70;99.90;;;;;;5031972;28;20498;-71
2023/03/14 00:51:45;;;;;;;2.10;1.40;;;11.70;99.90;;;;;;5025765;28;20495;-70
2023/03/14 00:54:31;;;;;;;1.63;0.93;;;11.60;99.90;;;;;;5021953;28;20438;-70
2023/03/14 00:57:17;;;;;;;2.90;1.27;;;11.60;99.90;;;;;;5023983;28;20510;-71
2023/03/14 01:00:05;;;;;;;4.63;1.33;;;11.60;99.90;;;;;;5026832;28;20485;-71
2023/03/14 01:02:52;;;;;;;3.30;0.90;;;11.60;99.90;;;;;;5025369;28;20486;-70
2023/03/14 01:05:38;;;;;;;3.97;1.10;;;11.60;99.90;;;;;;5029805;28;20623;-71
2023/03/14 01:08:24;;;;;;;1.87;1.17;;;11.60;99.90;;;;;;5034155;28;20427;-71
2023/03/14 01:11:11;;;;;;;2.53;1.50;;;11.50;99.90;;;;;;5041245;28;20435;-71
2023/03/14 01:13:58;;;;;;;2.30;1.07;;;11.60;99.90;;;;;;5027211;28;20515;-71
2023/03/14 01:16:43;;;;;;;3.27;1.23;;;11.60;99.90;;;;;;5031663;28;20932;-71
2023/03/14 01:19:31;;;;;;;3.83;1.00;;;11.70;99.90;;;;;;5035570;28;20612;-71
2023/03/14 01:22:17;;;;;;;2.33;1.20;;;11.70;99.90;;;;;;5041111;28;20402;-71
2023/03/14 01:25:04;;;;;;;3.27;1.30;;;11.80;99.90;;;;;;5032490;28;20451;-71
2023/03/14 01:27:49;;;;;;;3.73;1.53;;;11.70;99.90;;;;;;5029884;28;20425;-71
2023/03/14 01:30:35;;;;;;;2.63;1.33;;;11.70;99.90;;;;;;5042375;28;20975;-71
2023/03/14 01:33:21;;;;;;;3.50;1.23;;;11.70;99.90;;;;;;5022840;28;20810;-71
2023/03/14 01:36:10;;;;;;;3.47;1.27;;;11.70;99.90;;;;;;5029733;28;20490;-71
2023/03/14 01:38:56;;;;;;;2.87;0.90;;;11.80;99.90;;;;;;5029791;28;20459;-71
2023/03/14 01:41:41;;;;;;;2.13;1.17;;;11.80;99.90;;;;;;5042121;28;20431;-71
2023/03/14 01:44:27;;;;;;;5.17;1.93;;;11.80;99.90;;;;;;5025636;28;20799;-71
2023/03/14 01:47:13;;;;;;;2.77;1.20;;;11.80;99.90;;;;;;5030354;28;20406;-71
2023/03/14 01:50:02;;;;;;;5.30;1.60;;;11.70;99.90;;;;;;5034781;28;20459;-71
2023/03/14 01:52:52;;;;;;;2.17;0.83;;;11.80;99.90;;;;;;5038381;28;20471;-72
2023/03/14 01:55:38;;;;;;;3.47;1.50;;;11.80;99.90;;;;;;5033799;28;20794;-71
2023/03/14 01:58:27;;;;;;;3.80;1.27;;;11.70;99.90;;;;;;5028985;28;20774;-70
2023/03/14 02:01:12;;;;;;;1.50;1.00;;;11.70;99.90;;;;;;5037954;28;20956;-71
2023/03/14 02:04:02;;;;;;;3.70;1.40;;;11.70;99.90;;;;;;5029358;28;20583;-71
2023/03/14 02:06:53;;;;;;;6.27;3.00;;;11.60;99.90;;;;;;5030281;28;20512;-71
2023/03/14 02:09:42;;;;;;;4.47;1.43;;;11.60;99.90;;;;;;5030666;28;20597;-71
2023/03/14 02:12:28;;;;;;;8.03;2.97;;;11.70;99.90;;;;;;5032984;28;20549;-71
2023/03/14 02:15:14;;;;;;;5.80;1.30;;;11.60;99.90;;;;;;5027334;28;20431;-71
2023/03/14 02:18:02;;;;;;;4.50;1.70;;;11.70;99.90;;;;;;5030612;28;20566;-71
2023/03/14 02:20:54;;;;;;;2.83;1.63;;;11.70;99.90;;;;;;5041081;28;20463;-71
2023/03/14 02:23:48;;;;;;;7.97;1.80;;;11.60;99.90;;;;;;5026619;28;21022;-71
2023/03/14 02:26:39;;;;;;;6.60;2.10;;;11.60;99.90;;;;;;5026744;28;20439;-71
2023/03/14 02:29:26;;;;;;;6.27;2.60;;;11.60;99.90;;;;;;5032133;28;20470;-71
2023/03/14 02:32:13;;;;;;;2.67;1.30;;;11.60;99.90;;;;;;5038796;28;20522;-71
2023/03/14 02:35:00;;;;;;;2.60;1.67;;;11.60;99.90;;;;;;5029849;28;20413;-71
2023/03/14 02:37:52;;;;;;;2.33;1.37;;;11.60;99.90;;;;;;5033067;28;20927;-71
2023/03/14 02:40:38;;;;;;;2.90;1.63;;;11.70;99.90;;;;;;5044074;28;20417;-71
2023/03/14 02:43:24;;;;;;;7.17;1.90;;;11.70;99.90;;;;;;5026812;28;20634;-71
2023/03/14 02:46:13;;;;;;;4.03;1.90;;;11.70;99.90;;;;;;5032302;28;20408;-71
2023/03/14 02:49:04;;;;;;;3.47;2.07;;;11.70;99.90;;;;;;5031436;28;20934;-71
2023/03/14 02:51:50;;;;;;;3.30;1.40;;;11.60;99.90;;;;;;5042463;28;20496;-71
2023/03/14 02:54:36;;;;;;;2.27;1.17;;;11.60;99.90;;;;;;5023522;28;20439;-71
2023/03/14 02:57:22;;;;;;;2.23;0.90;;;11.60;99.90;;;;;;5029303;28;20435;-71
2023/03/14 03:00:09;;;;;;;3.20;1.30;;;11.50;99.90;;;;;;5033353;28;20513;-71
2023/03/14 03:02:56;;;;;;;3.80;1.80;;;11.50;99.90;;;;;;5032824;28;21033;-71
2023/03/14 03:05:42;;;;;;;6.67;1.30;;;11.50;99.90;;;;;;5033242;28;20963;-71
2023/03/14 03:08:29;;;;;;;4.60;1.77;;;11.50;99.90;;;;;;5036431;28;20838;-71
2023/03/14 03:11:14;;;;;;;3.50;1.30;;;11.50;99.90;;;;;;5048302;28;20520;-71
2023/03/14 03:14:00;;;;;;;5.33;1.60;;;11.40;99.90;;;;;;5039463;28;20477;-71
2023/03/14 03:16:46;;;;;;;9.30;2.40;;;11.50;99.90;;;;;;5030979;28;20985;-71
2023/03/14 03:19:33;;;;;;;4.17;1.47;;;11.40;99.90;;;;;;5036946;28;20456;-71
2023/03/14 03:22:19;;;;;;;1.50;0.90;;;11.40;99.90;;;;;;5034729;28;20545;-71
2023/03/14 03:25:06;;;;;;;4.23;1.50;;;11.40;99.90;;;;;;5037327;28;20430;-71
2023/03/14 03:27:53;;;;;;;2.30;1.27;;;11.40;99.90;;;;;;5033096;28;20422;-71
2023/03/14 03:30:39;;;;;;;3.77;1.57;;;11.30;99.90;;;;;;5038441;28;20556;-71
2023/03/14 03:33:25;;;;;;;5.13;1.70;;;11.30;99.90;;;;;;5035464;28;21021;-71
2023/03/14 03:36:12;;;;;;;5.13;1.70;;;11.30;99.90;;;;;;5031684;28;20445;-71
2023/03/14 03:38:58;;;;;;;5.60;1.27;;;11.30;99.90;;;;;;5032530;28;20529;-71
2023/03/14 03:41:44;;;;;;;6.00;1.87;;;11.30;99.90;;;;;;5038602;28;20446;-72
2023/03/14 03:44:29;;;;;;;3.73;1.40;;;11.20;99.90;;;;;;5032743;28;20421;-71
2023/03/14 03:47:15;;;;;;;2.80;1.57;;;11.20;99.90;;;;;;5031555;28;20557;-72
2023/03/14 03:50:01;;;;;;;6.70;1.60;;;11.20;99.90;;;;;;5040751;28;20524;-71
2023/03/14 03:52:48;;;;;;;7.00;1.40;;;11.20;99.90;;;;;;5031349;28;20478;-72
2023/03/14 03:55:34;;;;;;;1.83;1.10;;;11.20;99.90;;;;;;5030059;28;20435;-71
2023/03/14 03:58:20;;;;;;;2.10;1.10;;;11.20;99.90;;;;;;5032859;28;20813;-71
2023/03/14 04:01:06;;;;;;;5.27;1.80;;;11.10;99.90;;;;;;5038745;28;21081;-71
2023/03/14 04:03:52;;;;;;;7.43;1.80;;;11.10;99.90;;;;;;5031506;28;20416;-71
2023/03/14 04:06:38;;;;;;;7.50;2.00;;;11.10;99.90;;;;;;5033024;28;20986;-71
2023/03/14 04:09:25;;;;;;;5.00;1.67;;;11.10;99.90;;;;;;5035631;28;20515;-71
2023/03/14 04:12:11;;;;;;;5.20;1.70;;;11.20;99.90;;;;;;5030313;28;21185;-71
2023/03/14 04:14:56;;;;;;;6.80;1.70;;;11.20;99.90;;;;;;5036549;28;20433;-70
2023/03/14 04:17:42;;;;;;;4.33;1.50;;;11.20;99.90;;;;;;5032688;28;20471;-70
2023/03/14 04:20:27;;;;;;;11.33;1.73;;;11.10;99.90;;;;;;5045706;28;20449;-71
2023/03/14 04:23:13;;;;;;;4.20;1.60;;;11.20;99.90;;;;;;5030839;28;20431;-71
2023/03/14 04:26:00;;;;;;;7.70;1.50;;;11.20;99.90;;;;;;5036183;28;20810;-71
2023/03/14 04:28:46;;;;;;;7.70;1.60;;;11.20;99.90;;;;;;5039431;28;20433;-70
2023/03/14 04:31:32;;;;;;;5.20;1.67;;;11.20;99.90;;;;;;5036473;28;20446;-71
2023/03/14 04:34:17;;;;;;;4.90;1.60;;;11.30;99.90;;;;;;5038803;28;20467;-71
2023/03/14 04:37:03;;;;;;;5.60;1.60;;;11.20;99.90;;;;;;5044699;28;20850;-71
2023/03/14 04:39:49;;;;;;;9.63;1.83;;;11.30;99.90;;;;;;5033205;28;20451;-71
2023/03/14 04:42:36;;;;;;;2.80;1.20;;;11.40;99.90;;;;;;5028110;28;20451;-70
2023/03/14 04:45:21;;;;;;;2.50;1.17;;;11.40;99.90;;;;;;5046921;28;20554;-70
2023/03/14 04:48:07;;;;;;;8.97;2.10;;;11.30;99.90;;;;;;5040566;28;20422;-70
2023/03/14 04:50:53;;;;;;;4.30;1.30;;;11.30;99.90;;;;;;5026125;28;20451;-71
2023/03/14 04:53:39;;;;;;;3.63;1.13;;;11.40;99.90;;;;;;5035806;28;20469;-71
2023/03/14 04:56:25;;;;;;;3.20;1.20;;;11.40;99.90;;;;;;5031354;28;20434;-71
2023/03/14 04:59:12;;;;;;;3.47;1.50;;;11.50;99.90;;;;;;5032398;28;21281;-70
2023/03/14 05:01:57;;;;;;;2.23;1.13;;;11.40;99.90;;;;;;5025660;28;20461;-70
2023/03/14 05:04:43;;;;;;;5.47;1.47;;;11.40;99.90;;;;;;5036126;28;20413;-70
2023/03/14 05:07:29;;;;;;;5.47;1.53;;;11.50;99.90;;;;;;5037707;28;20511;-70
2023/03/14 05:10:14;;;;;;;6.40;1.37;;;11.40;99.90;;;;;;5033873;28;20451;-70
2023/03/14 05:13:00;;;;;;;6.32;1.30;;;11.40;99.90;;;;;;5038676;28;20993;-69
2023/03/14 05:15:47;;;;;;;4.97;1.37;;;11.40;99.90;;;;;;5034098;28;20203;-72
2023/03/14 05:18:32;;;;;;;6.30;1.60;;;11.40;99.90;;;;;;5042408;28;20972;-72
2023/03/14 05:21:18;;;;;;;3.43;1.40;;;11.40;99.90;;;;;;5029697;28;20507;-71
2023/03/14 05:24:04;;;;;;;3.30;1.20;;;11.40;99.90;;;;;;5033255;28;20427;-72
2023/03/14 05:26:50;;;;;;;5.40;1.27;;;11.30;99.90;;;;;;5039090;28;20449;-71
2023/03/14 05:29:36;;;;;;;3.80;1.20;;;11.30;99.90;;;;;;5029252;28;20526;-71
2023/03/14 05:32:23;;;;;;;4.97;1.70;;;11.30;99.90;;;;;;5021620;28;20573;-71
2023/03/14 05:35:09;;;;;;;6.93;1.60;;;11.40;99.90;;;;;;5031604;28;20440;-71
2023/03/14 05:37:55;;;;;;;4.17;1.30;;;11.30;99.90;;;;;;5037489;28;20442;-71
2023/03/14 05:40:41;;;;;;;2.30;1.40;;;11.30;99.90;;;;;;5027055;28;20511;-71
2023/03/14 05:43:26;;;;;;;4.07;1.47;;;11.30;99.90;;;;;;5031821;28;20431;-71
2023/03/14 05:46:12;;;;;;;4.97;1.57;;;11.30;99.90;;;;;;5030215;28;20434;-71
2023/03/14 05:49:00;;;;;;;6.50;1.63;;;11.30;99.90;;;;;;5031389;28;20617;-71
2023/03/14 05:51:45;;;;;;;3.50;1.27;;;11.30;99.90;;;;;;5023264;28;21349;-71
2023/03/14 05:54:31;;;;;;;2.30;1.13;;;11.20;99.90;;;;;;5031061;28;20480;-71
2023/03/14 05:57:17;;;;;;;6.90;1.30;;;11.20;99.90;;;;;;5050452;28;20441;-71
2023/03/14 06:00:02;;;;;;;4.37;1.40;;;11.30;99.90;;;;;;5042743;28;20469;-71
2023/03/14 06:02:48;;;;;;;4.43;1.30;;;11.30;99.90;;;;;;5031415;28;20562;-71
2023/03/14 06:05:35;;;;;;;4.20;1.20;;;11.30;99.90;;;;;;5039289;28;20427;-71
2023/03/14 06:08:21;;;;;;;2.87;1.33;;;11.20;99.90;;;;;;5032101;28;20934;-71
2023/03/14 06:11:07;;;;;;;3.53;1.80;;;11.30;99.90;;;;;;5025174;28;20453;-71
2023/03/14 06:13:53;;;;;;;2.67;1.20;;;11.30;99.90;;;;;;5032029;28;21112;-71
2023/03/14 06:16:38;;;;;;;6.33;1.43;;;11.30;99.90;;;;;;5024389;28;20555;-70
2023/03/14 06:19:24;;;;;;;5.53;1.33;;;11.30;99.90;;;;;;5029814;28;20463;-71
2023/03/14 06:22:11;;;;;;;5.77;1.17;;;11.30;99.90;;;;;;5027371;28;20436;-70
2023/03/14 06:24:56;;;;;;;2.47;1.30;;;11.30;99.90;;;;;;5037586;28;20441;-70
2023/03/14 06:27:42;;;;;;;2.60;1.27;;;11.30;99.90;;;;;;5026842;28;20427;-71
2023/03/14 06:30:28;;;;;;;10.90;1.20;;;11.30;99.90;;;;;;5026391;28;20525;-71
2023/03/14 06:33:13;;;;;;;5.00;1.37;;;11.20;99.90;;;;;;5038431;28;21078;-71
2023/03/14 06:35:59;;;;;;;3.97;1.30;;;11.30;99.90;;;;;;5025168;28;20445;-71
2023/03/14 06:38:46;;;;;;;6.90;1.60;;;11.30;99.90;;;;;;5033336;28;20488;-71
2023/03/14 06:41:32;;;;;;;2.70;1.10;;;11.40;99.90;;;;;;5031372;28;20939;-71
2023/03/14 06:44:18;;;;;;;4.20;0.90;;;11.40;99.90;;;;;;5038358;28;20477;-71
2023/03/14 06:47:03;;;;;;;2.13;1.20;;;11.30;99.90;;;;;;5036808;28;20426;-71
2023/03/14 06:49:49;;;;;;;7.93;1.70;;;11.40;99.90;;;;;;5029002;28;20533;-71
2023/03/14 06:52:35;;;;;;;2.93;1.47;;;11.30;99.90;;;;;;5043377;28;20450;-71
2023/03/14 06:55:22;;;;;;;2.60;1.20;;;11.40;99.90;;;;;;5033765;28;20998;-71
2023/03/14 06:58:07;;;;;;;5.33;1.13;;;11.40;99.90;;;;;;5047430;28;20413;-71
2023/03/14 07:00:54;;;;;;;5.00;1.20;;;11.40;99.90;;;;;;5031459;28;20536;-71
2023/03/14 07:03:40;;;;;;;5.47;1.70;;;11.30;99.90;;;;;;5027701;28;20428;-71
2023/03/14 07:06:26;;;;;;;4.93;1.50;;;11.30;99.90;;;;;;5036585;28;20431;-71
2023/03/14 07:09:11;;;;;;;3.20;1.03;;;11.30;99.90;;;;;;5034908;28;20595;-71
2023/03/14 07:11:58;;;;;;;2.93;1.03;;;11.20;99.90;;;;;;5038017;28;20392;-71
2023/03/14 07:14:44;;;;;;;5.37;1.87;;;11.20;99.90;;;;;;5041511;28;20474;-71
2023/03/14 07:17:29;;;;;;;4.73;1.00;;;11.30;99.90;;;;;;5037899;28;20919;-71
2023/03/14 07:20:15;;;;;;;6.33;1.50;;;11.30;99.90;;;;;;5026880;28;20487;-71
2023/03/14 07:23:02;;;;;;;6.30;1.90;;;11.20;99.90;;;;;;5034409;28;20939;-71
2023/03/14 07:25:48;;;;;;;4.00;1.20;;;11.20;99.90;;;;;;5036446;28;20471;-71
2023/03/14 07:28:35;;;;;;;2.57;1.20;;;11.10;99.90;;;;;;5033483;28;20507;-71
2023/03/14 07:31:20;;;;;;;2.87;1.17;;;11.10;99.90;;;;;;5029093;28;20424;-71
2023/03/14 07:34:06;;;;;;;6.07;1.40;;;11.20;99.90;;;;;;5033668;28;20474;-71
2023/03/14 07:36:52;;;;;;;7.63;1.20;;;11.10;99.90;;;;;;5034079;28;20429;-71
2023/03/14 07:39:38;;;;;;;4.97;0.97;;;11.20;99.90;;;;;;5024099;28;20518;-71
2023/03/14 07:42:23;;;;;;;2.27;1.20;;;11.30;99.90;;;;;;5035638;28;20401;-71
2023/03/14 07:45:11;;;;;;;5.80;1.70;;;11.30;99.90;;;;;;5033073;28;20417;-71
2023/03/14 07:47:57;;;;;;;4.70;1.43;;;11.40;99.90;;;;;;5045634;28;20430;-71
2023/03/14 07:50:43;;;;;;;7.10;1.40;;;11.40;99.90;;;;;;5029776;28;20431;-71
2023/03/14 07:53:28;;;;;;;3.97;1.60;;;11.40;99.90;;;;;;5043926;28;21026;-71
2023/03/14 07:56:14;;;;;;;4.50;1.20;;;11.40;99.90;;;;;;5032891;28;20493;-71
2023/03/14 07:58:59;;;;;;;4.50;1.93;;;11.40;99.90;;;;;;5027560;28;21031;-71
2023/03/14 08:01:46;;;;;;;3.63;1.20;;;11.40;99.90;;;;;;5043163;28;20557;-71
2023/03/14 08:04:33;;;;;;;2.93;1.33;;;11.40;99.90;;;;;;5043544;28;20417;-71
2023/03/14 08:07:19;;;;;;;5.27;1.20;;;11.40;99.90;;;;;;5041886;28;20426;-71
2023/03/14 08:10:06;;;;;;;3.90;1.20;;;11.40;99.90;;;;;;5030977;28;20556;-71
2023/03/14 08:12:54;;;;;;;5.27;1.20;;;11.40;99.90;;;;;;5035412;28;20530;-71
2023/03/14 08:15:40;;;;;;;2.57;0.80;;;11.30;99.90;;;;;;5037480;28;20556;-71
2023/03/14 08:18:26;;;;;;;3.13;1.40;;;11.30;99.90;;;;;;5035074;28;20418;-71
2023/03/14 08:21:13;;;;;;;5.10;1.30;;;11.40;99.90;;;;;;5041418;28;20914;-71
2023/03/14 08:23:58;;;;;;;2.70;0.90;;;11.40;99.90;;;;;;5037882;28;20432;-71
2023/03/14 08:26:44;;;;;;;5.30;1.37;;;11.50;99.90;;;;;;5051256;28;20425;-71
2023/03/14 08:29:29;;;;;;;3.63;1.20;;;11.40;99.90;;;;;;5026659;28;20449;-71
2023/03/14 08:32:15;;;;;;;2.70;1.27;;;11.50;99.90;;;;;;5041175;28;20435;-71
2023/03/14 08:35:03;;;;;;;5.87;2.10;;;11.50;99.90;;;;;;5040131;28;20474;-71
2023/03/14 08:37:48;;;;;;;1.77;0.80;;;11.40;99.90;;;;;;5033149;28;20433;-71
2023/03/14 08:40:34;;;;;;;3.50;1.20;;;11.50;99.90;;;;;;5031691;28;20479;-71
2023/03/14 08:43:19;;;;;;;4.67;1.50;;;11.40;99.90;;;;;;5032379;28;20492;-71
2023/03/14 08:46:06;;;;;;;3.10;0.90;;;11.50;99.90;;;;;;5035337;28;20400;-71
2023/03/14 08:48:51;;;;;;;4.00;1.13;;;11.40;99.90;;;;;;5031752;28;20521;-71
2023/03/14 08:51:38;;;;;;;2.67;1.10;;;11.50;99.90;;;;;;5034961;28;20423;-71
2023/03/14 08:54:24;;;;;;;3.07;0.97;;;11.50;99.90;;;;;;5036424;28;20643;-71
2023/03/14 08:57:09;;;;;;;2.33;1.00;;;11.60;99.90;;;;;;5029733;28;20431;-71
2023/03/14 08:59:56;;;;;;;4.87;1.20;;;11.70;99.90;;;;;;5030467;28;20967;-71
2023/03/14 09:02:42;;;;;;;2.50;0.80;;;11.70;99.90;;;;;;5041096;28;20793;-71
2023/03/14 09:05:28;;;;;;;1.63;0.97;;;11.80;99.90;;;;;;5033014;28;20481;-71
2023/03/14 09:08:15;;;;;;;4.50;1.20;;;11.80;99.90;;;;;;5027958;28;20960;-71
2023/03/14 09:11:00;;;;;;;3.07;1.07;;;11.90;99.90;;;;;;5034677;28;20519;-71
2023/03/14 09:13:46;;;;;;;3.93;1.27;;;11.90;99.90;;;;;;5031528;28;20451;-71
2023/03/14 09:16:33;;;;;;;3.10;1.40;;;12.00;99.90;;;;;;5035127;28;20587;-71
2023/03/14 09:19:19;;;;;;;2.47;0.80;;;11.90;99.90;;;;;;5025647;28;20519;-71
2023/03/14 09:22:05;;;;;;;8.03;1.90;;;11.90;99.90;;;;;;5031337;28;20514;-72
2023/03/14 09:24:52;;;;;;;1.47;0.57;;;11.90;99.90;;;;;;5026323;28;20475;-71
2023/03/14 09:27:37;;;;;;;2.00;0.80;;;11.90;99.90;;;;;;5027234;28;20459;-71
2023/03/14 09:30:23;;;;;;;3.60;0.90;;;11.90;99.90;;;;;;5030999;28;20623;-71
2023/03/14 09:33:08;;;;;;;1.73;1.00;;;11.90;99.90;;;;;;5033247;28;20447;-71
2023/03/14 09:35:54;;;;;;;4.50;0.97;;;11.80;99.90;;;;;;5026892;28;20415;-71
2023/03/14 09:38:40;;;;;;;2.43;0.80;;;11.80;99.90;;;;;;5032847;28;20451;-71
2023/03/14 09:41:29;;;;;;;3.03;0.80;;;11.80;99.90;;;;;;5033756;28;21247;-71
2023/03/14 09:44:19;;;;;;;2.60;1.03;;;11.80;99.90;;;;;;5029976;28;20796;-71
2023/03/14 09:47:07;;;;;;;2.47;0.90;;;11.80;99.90;;;;;;5029635;28;20434;-70
2023/03/14 09:49:53;;;;;;;2.23;0.80;;;11.80;99.90;;;;;;5030700;28;20546;-71
2023/03/14 09:52:41;;;;;;;6.03;0.90;;;11.70;99.90;;;;;;5034786;28;20926;-70
2023/03/14 09:55:27;;;;;;;1.60;0.80;;;11.80;99.90;;;;;;5023249;28;20465;-72
2023/03/14 09:58:17;;;;;;;2.40;0.90;;;11.80;99.90;;;;;;5030865;28;20553;-71
2023/03/14 10:01:03;;;;;;;2.43;1.00;;;11.90;99.90;;;;;;5046501;28;20489;-72
2023/03/14 10:03:49;;;;;;;1.83;0.80;;;11.90;99.90;;;;;;5030575;28;21009;-71
2023/03/14 10:06:35;;;;;;;4.63;1.10;;;11.90;99.90;;;;;;5025192;28;20454;-70
2023/03/14 10:09:25;;;;;;;2.33;0.90;;;12.00;99.90;;;;;;5030815;28;20578;-70
2023/03/14 10:12:11;;;;;;;2.83;0.97;;;12.00;99.90;;;;;;5037602;28;20405;-72
2023/03/14 10:15:02;;;;;;;2.80;0.80;;;12.00;99.90;;;;;;5038838;28;21075;-70
2023/03/14 10:17:50;;;;;;;3.93;0.80;;;11.90;99.90;;;;;;5028030;28;20422;-70
2023/03/14 10:20:37;;;;;;;2.40;0.90;;;11.90;99.90;;;;;;5033920;28;20445;-70
2023/03/14 10:23:29;;;;;;;1.73;0.83;;;11.80;99.90;;;;;;5030408;28;20444;-71
2023/03/14 10:26:16;;;;;;;3.00;0.70;;;11.70;99.90;;;;;;5029148;28;20420;-70
2023/03/14 10:29:05;;;;;;;1.80;0.83;;;11.70;99.90;;;;;;5030063;28;21101;-72
2023/03/14 10:31:58;;;;;;;2.57;0.90;;;11.70;99.90;;;;;;5040470;28;20430;-72
2023/03/14 10:34:44;;;;;;;1.67;0.53;;;11.70;99.90;;;;;;5035606;28;20832;-72
2023/03/14 10:37:29;;;;;;;2.30;0.97;;;11.70;99.90;;;;;;5023119;28;20861;-72
2023/03/14 10:40:15;;;;;;;2.53;1.10;;;11.70;99.90;;;;;;5034334;28;20534;-72
2023/03/14 10:43:04;;;;;;;3.73;0.70;;;11.60;99.90;;;;;;5032142;28;20798;-72
2023/03/14 10:45:57;;;;;;;2.90;0.80;;;11.60;99.90;;;;;;5028734;28;20431;-72
2023/03/14 10:48:45;;;;;;;2.43;0.70;;;11.50;99.90;;;;;;5027642;28;20439;-72
2023/03/14 10:51:31;;;;;;;2.90;0.70;;;11.50;99.90;;;;;;5020167;28;20442;-73
2023/03/14 10:54:23;;;;;;;3.40;1.40;;;11.60;99.90;;;;;;5032188;28;20539;-73
2023/03/14 10:57:09;;;;;;;1.93;0.70;;;11.50;99.90;;;;;;5029879;28;20511;-73
2023/03/14 10:59:57;;;;;;;1.40;0.63;;;11.40;99.90;;;;;;5027587;28;20980;-73
2023/03/14 11:02:54;;;;;;;1.50;0.80;;;11.40;99.90;;;;;;5033474;28;20490;-73
2023/03/14 11:05:44;;;;;;;3.83;0.80;;;11.40;99.90;;;;;;5031765;28;20410;-73
2023/03/14 11:08:36;;;;;;;3.03;0.87;;;11.40;99.90;;;;;;5035487;28;20415;-73
2023/03/14 11:11:25;;;;;;;1.60;0.80;;;11.30;99.90;;;;;;5034733;28;20566;-72
2023/03/14 11:14:21;;;;;;;1.37;0.63;;;11.30;99.90;;;;;;5022678;28;20811;-73
2023/03/14 11:17:17;;;;;;;1.53;0.70;;;11.30;99.90;;;;;;5034219;28;20459;-72
2023/03/14 11:20:24;;;;;;;2.13;0.80;;;11.20;99.90;;;;;;5026283;28;20447;-72
2023/03/14 11:23:15;;;;;;;1.77;0.87;;;11.10;99.90;;;;;;5040868;28;20484;-72
2023/03/14 11:26:10;;;;;;;1.30;0.73;;;11.10;99.90;;;;;;5047917;28;20426;-72
2023/03/14 11:29:03;;;;;;;1.33;0.60;;;11.00;99.90;;;;;;5048713;28;20539;-72
2023/03/14 11:31:48;;;;;;;1.50;0.80;;;11.00;99.90;;;;;;5039109;28;20452;-72
2023/03/14 11:34:40;;;;;;;1.93;0.73;;;11.00;99.90;;;;;;5023722;28;20482;-72
2023/03/14 11:37:30;;;;;;;1.20;0.60;;;11.00;99.90;;;;;;5034469;28;20423;-72
2023/03/14 11:40:20;;;;;;;3.13;0.77;;;10.90;99.90;;;;;;5041820;28;20428;-72
2023/03/14 11:43:14;;;;;;;1.40;0.60;;;10.90;99.90;;;;;;5037353;28;20427;-72
2023/03/14 11:46:06;;;;;;;2.70;0.90;;;11.00;99.90;;;;;;5040711;28;20396;-72
2023/03/14 11:49:02;;;;;;;1.10;0.60;;;11.10;99.90;;;;;;5033017;28;21089;-72
2023/03/14 11:51:52;;;;;;;1.63;0.87;;;10.90;99.90;;;;;;5033406;28;20786;-72
2023/03/14 11:54:45;;;;;;;1.73;0.70;;;10.90;99.90;;;;;;5025149;28;20897;-72
2023/03/14 11:57:32;;;;;;;1.57;0.90;;;10.90;99.90;;;;;;5029835;28;20402;-73
2023/03/14 12:00:20;;;;;;;2.60;0.70;;;10.90;99.90;;;;;;5032457;28;20967;-72
2023/03/14 12:03:15;;;;;;;1.80;0.80;;;10.80;99.90;;;;;;5029492;28;20444;-72
2023/03/14 12:06:08;;;;;;;1.63;1.20;;;10.80;99.90;;;;;;5032736;28;20978;-72
2023/03/14 12:08:55;;;;;;;1.70;1.30;;;10.70;99.90;;;;;;5036092;28;20455;-72
2023/03/14 12:11:47;;;;;;;2.80;1.43;;;10.70;99.90;;;;;;5031027;28;20905;-72
2023/03/14 12:14:36;;;;;;;3.23;1.77;;;10.80;99.90;;;;;;5025610;28;20486;-72
2023/03/14 12:17:25;;;;;;;2.07;1.70;;;10.80;99.90;;;;;;5032860;28;20439;-72
2023/03/14 12:20:18;;;;;;;2.10;1.60;;;10.90;99.90;;;;;;5032760;28;20502;-72
2023/03/14 12:23:06;;;;;;;2.37;1.57;;;10.80;99.90;;;;;;5027975;28;20661;-72
2023/03/14 12:26:09;;;;;;;1.70;1.17;;;10.80;99.90;;;;;;5028065;28;20573;-72
2023/03/14 12:29:15;;;;;;;3.30;1.40;;;10.70;99.90;;;;;;5027792;28;20553;-73
2023/03/14 12:32:24;;;;;;;1.50;0.90;;;10.70;99.90;;;;;;5035107;28;20946;-73
2023/03/14 12:35:35;;;;;;;1.90;0.93;;;10.60;99.90;;;;;;5034116;28;20507;-73
2023/03/14 12:38:28;;;;;;;1.53;0.80;;;10.50;99.90;;;;;;5031861;28;21076;-73
2023/03/14 12:41:18;;;;;;;1.90;0.93;;;10.50;99.90;;;;;;5022835;28;20567;-73
2023/03/14 12:44:47;;;;;;;2.17;0.60;;;10.40;99.90;;;;;;5026769;28;20629;-72
2023/03/14 12:47:53;;;;;;;1.20;0.60;;;10.40;99.90;;;;;;5029331;28;21003;-72
2023/03/14 12:50:44;;;;;;;1.30;0.60;;;10.30;99.90;;;;;;5027830;28;20497;-73
2023/03/14 12:54:01;;;;;;;1.20;0.50;;;10.40;99.90;;;;;;5026776;28;20752;-73
2023/03/14 12:57:00;;;;;;;1.97;0.60;;;10.40;99.90;;;;;;5036118;28;20482;-72
2023/03/14 12:59:52;;;;;;;1.30;0.60;;;10.40;99.90;;;;;;5032858;28;20471;-72
2023/03/14 13:02:40;;;;;;;1.30;0.70;;;10.40;99.90;;;;;;5019692;28;20537;-72
2023/03/14 13:05:27;;;;;;;1.30;0.60;;;10.40;99.90;;;;;;5029485;28;20454;-72
2023/03/14 13:08:13;;;;;;;1.30;0.70;;;10.40;99.90;;;;;;5037871;28;20446;-72
2023/03/14 13:10:59;;;;;;;1.50;0.70;;;10.40;99.90;;;;;;5037026;28;20917;-72
2023/03/14 13:13:48;;;;;;;2.37;0.73;;;10.30;99.90;;;;;;5027254;28;20462;-72
2023/03/14 13:16:37;;;;;;;1.17;0.57;;;10.30;99.90;;;;;;5029106;28;20526;-72
2023/03/14 13:19:26;;;;;;;1.63;0.67;;;10.30;99.90;;;;;;5032775;28;20479;-73
2023/03/14 13:22:21;;;;;;;5.50;0.70;;;10.30;99.90;;;;;;5026109;28;20497;-72
2023/03/14 13:25:11;;;;;;;1.23;0.70;;;10.30;99.90;;;;;;5035256;28;20558;-72
2023/03/14 13:27:57;;;;;;;3.37;0.60;;;10.30;99.90;;;;;;5022750;28;20452;-72
2023/03/14 13:30:44;;;;;;;1.77;0.83;;;10.30;99.90;;;;;;5022927;28;20451;-72
2023/03/14 13:33:31;;;;;;;1.27;0.70;;;10.30;99.90;;;;;;5029255;28;20962;-72
2023/03/14 13:36:23;;;;;;;1.33;0.70;;;10.30;99.90;;;;;;5027521;28;20866;-73
2023/03/14 13:39:15;;;;;;;2.73;1.10;;;10.30;99.90;;;;;;5030863;28;20467;-71
2023/03/14 13:42:02;;;;;;;1.70;0.83;;;10.30;99.90;;;;;;5014803;28;21104;-71
2023/03/14 13:44:48;;;;;;;1.37;0.70;;;10.30;99.90;;;;;;5031362;28;20430;-72
2023/03/14 13:47:33;;;;;;;1.97;0.83;;;10.30;99.90;;;;;;5030977;28;20807;-71
2023/03/14 13:50:19;;;;;;;4.80;1.27;;;10.20;99.90;;;;;;5031194;28;20533;-71
2023/03/14 13:53:05;;;;;;;3.20;1.30;;;10.20;99.90;;;;;;5025861;28;20524;-71
2023/03/14 13:55:53;;;;;;;1.90;0.97;;;10.10;99.90;;;;;;5037872;28;20474;-71
2023/03/14 13:58:40;;;;;;;2.00;1.10;;;10.10;99.90;;;;;;5024859;28;20448;-72
2023/03/14 14:01:30;;;;;;;2.83;1.30;;;10.00;99.90;;;;;;5036965;28;21064;-71
2023/03/14 14:04:19;;;;;;;7.83;1.40;;;10.00;99.90;;;;;;5030542;28;20434;-71
2023/03/14 14:07:11;;;;;;;2.37;0.90;;;9.70;99.90;;;;;;5028778;28;20418;-71
2023/03/14 14:10:00;;;;;;;6.80;1.47;;;9.50;99.90;;;;;;5035610;28;20985;-71
2023/03/14 14:12:51;;;;;;;1.50;0.90;;;9.30;99.90;;;;;;5023566;28;20450;-71
2023/03/14 14:15:42;;;;;;;2.17;1.10;;;9.20;99.90;;;;;;5045677;28;20824;-71
2023/03/14 14:18:29;;;;;;;3.57;1.30;;;9.20;99.90;;;;;;5025822;28;20949;-71
2023/03/14 14:21:15;;;;;;;3.10;1.30;;;9.10;99.90;;;;;;5037575;28;20488;-71
2023/03/14 14:24:01;;;;;;;2.00;1.07;;;9.10;99.90;;;;;;5021287;28;20507;-71
2023/03/14 14:26:51;;;;;;;2.35;1.10;;;9.20;99.90;;;;;;5017176;28;20443;-71
2023/03/14 14:29:37;;;;;;;3.10;1.13;;;9.40;99.90;;;;;;5021301;28;20319;-71
2023/03/14 14:32:24;;;;;;;1.97;0.97;;;9.90;99.90;;;;;;5018310;28;20607;-71
2023/03/14 14:35:22;;;;;;;2.20;1.30;;;10.10;99.90;;;;;;5023948;28;20502;-71